Time;durP1;ratioP1;P1;durP2;ratioP2;P2;SDS_P1;SDS_P2;PMS_P1;PMS_P2;Temp;Humidity;BMP_temperature;BMP_pressure;BME280_temperature;BME280_humidity;BME280_pressure;Samples;Min_cycle;Max_cycle;Signal;HPM_P1;HPM_P2
2022/05/26 00:01:43;;;;;;;1.05;0.70;;;12.70;99.90;;;;;;5061772;28;20029;-84
2022/05/26 00:04:12;;;;;;;0.65;0.65;;;12.80;99.90;;;;;;5048880;28;20052;-84
2022/05/26 00:06:38;;;;;;;0.90;0.90;;;12.80;99.90;;;;;;5070318;28;20021;-83
2022/05/26 00:09:04;;;;;;;1.52;0.77;;;12.70;99.90;;;;;;5054371;28;20079;-83
2022/05/26 00:11:32;;;;;;;0.63;0.63;;;12.80;99.90;;;;;;5062733;28;20049;-83
2022/05/26 00:14:07;;;;;;;1.50;0.90;;;12.80;99.90;;;;;;5056211;28;20056;-83
2022/05/26 00:16:37;;;;;;;0.73;0.73;;;12.80;99.90;;;;;;5065689;28;20017;-83
2022/05/26 00:19:04;;;;;;;0.70;0.70;;;12.80;99.90;;;;;;5071193;28;20029;-83
2022/05/26 00:21:30;;;;;;;0.90;0.90;;;12.80;99.90;;;;;;5076886;28;20044;-83
2022/05/26 00:23:57;;;;;;;1.00;0.80;;;12.90;99.90;;;;;;5075099;28;20478;-83
2022/05/26 00:26:24;;;;;;;0.70;0.70;;;12.90;99.90;;;;;;5038769;28;20029;-83
2022/05/26 00:28:49;;;;;;;0.85;0.70;;;12.90;99.90;;;;;;5039270;28;20025;-83
2022/05/26 00:31:15;;;;;;;0.70;0.70;;;13.00;99.90;;;;;;5040822;28;20040;-82
2022/05/26 00:33:41;;;;;;;2.13;0.90;;;13.00;99.90;;;;;;5056672;28;20434;-84
2022/05/26 00:36:09;;;;;;;0.93;0.63;;;13.00;99.90;;;;;;5055619;28;20029;-80
2022/05/26 00:38:36;;;;;;;0.98;0.90;;;13.10;99.90;;;;;;5037789;28;20033;-79
2022/05/26 00:41:04;;;;;;;0.80;0.80;;;13.00;99.90;;;;;;5056149;28;20501;-80
2022/05/26 00:43:30;;;;;;;1.10;0.98;;;13.00;99.90;;;;;;5056042;28;20217;-79
2022/05/26 00:46:06;;;;;;;1.20;0.80;;;13.00;99.90;;;;;;5061336;28;20028;-79
2022/05/26 00:48:54;;;;;;;0.77;0.77;;;13.00;99.90;;;;;;5062842;28;20113;-80
2022/05/26 00:51:26;;;;;;;1.30;0.80;;;12.90;99.90;;;;;;5055672;28;20345;-81
2022/05/26 00:53:56;;;;;;;0.68;0.68;;;12.90;99.90;;;;;;5036221;28;20055;-81
2022/05/26 00:56:44;;;;;;;0.98;0.70;;;12.80;99.90;;;;;;5054986;28;20064;-80
2022/05/26 00:59:26;;;;;;;0.63;0.63;;;12.80;99.90;;;;;;5054662;28;20075;-80
2022/05/26 01:01:52;;;;;;;1.70;0.90;;;12.80;99.90;;;;;;5056033;28;20437;-79
2022/05/26 01:04:24;;;;;;;0.65;0.65;;;12.80;99.90;;;;;;5036121;28;20562;-80
2022/05/26 01:07:07;;;;;;;0.60;0.60;;;12.70;99.90;;;;;;5054653;28;20489;-80
2022/05/26 01:09:33;;;;;;;0.85;0.52;;;12.70;99.90;;;;;;5054850;28;20402;-80
2022/05/26 01:11:59;;;;;;;0.80;0.77;;;12.70;99.90;;;;;;5054330;28;20047;-80
2022/05/26 01:14:29;;;;;;;1.20;0.80;;;12.70;99.90;;;;;;5053470;28;20210;-80
2022/05/26 01:17:25;;;;;;;1.77;0.70;;;12.70;99.90;;;;;;5062503;28;20095;-79
2022/05/26 01:20:22;;;;;;;0.75;0.75;;;12.60;99.90;;;;;;5033915;28;20035;-81
2022/05/26 01:23:12;;;;;;;1.45;0.90;;;12.60;99.90;;;;;;5034895;28;20018;-81
2022/05/26 01:25:40;;;;;;;1.73;1.00;;;12.60;99.90;;;;;;5054244;28;20097;-81
2022/05/26 01:28:15;;;;;;;0.77;0.70;;;12.60;99.90;;;;;;5055799;28;20184;-80
2022/05/26 01:31:33;;;;;;;2.92;0.90;;;12.60;99.90;;;;;;5054381;28;20020;-81
2022/05/26 01:34:17;;;;;;;1.25;0.93;;;12.60;99.90;;;;;;4972429;28;20042;-81
2022/05/26 01:37:10;;;;;;;1.52;1.10;;;12.60;99.90;;;;;;5054776;28;20025;-80
2022/05/26 01:40:05;;;;;;;0.75;0.75;;;12.50;99.90;;;;;;5036445;28;20021;-80
2022/05/26 01:42:43;;;;;;;1.45;0.90;;;12.50;99.90;;;;;;5036846;28;20029;-81
2022/05/26 01:45:30;;;;;;;1.75;0.80;;;12.50;99.90;;;;;;5035948;28;20017;-81
2022/05/26 01:48:10;;;;;;;0.93;0.50;;;12.40;99.90;;;;;;5036353;28;20028;-80
2022/05/26 01:50:55;;;;;;;0.93;0.90;;;12.40;99.90;;;;;;5074386;28;20024;-80
2022/05/26 01:53:49;;;;;;;1.00;0.90;;;12.40;99.90;;;;;;5075041;28;20068;-79
2022/05/26 01:56:53;;;;;;;0.70;0.70;;;12.40;99.90;;;;;;5023614;28;20468;-80
2022/05/26 01:59:30;;;;;;;1.17;0.95;;;12.40;99.90;;;;;;5032540;28;20486;-80
2022/05/26 02:02:09;;;;;;;0.70;0.70;;;12.40;99.90;;;;;;5054627;28;20323;-80
2022/05/26 02:04:47;;;;;;;0.95;0.60;;;12.40;99.90;;;;;;5035998;28;20056;-79
2022/05/26 02:07:24;;;;;;;0.60;0.60;;;12.40;99.90;;;;;;5054185;28;20381;-78
2022/05/26 02:09:52;;;;;;;1.70;0.93;;;12.40;99.90;;;;;;5054148;28;20025;-79
2022/05/26 02:12:33;;;;;;;0.80;0.80;;;12.30;99.90;;;;;;5054187;28;20025;-80
2022/05/26 02:15:19;;;;;;;2.50;1.60;;;12.30;99.90;;;;;;5054033;28;20025;-80
2022/05/26 02:17:50;;;;;;;0.80;0.80;;;12.30;99.90;;;;;;5040396;28;20027;-80
2022/05/26 02:20:26;;;;;;;0.88;0.88;;;12.30;99.90;;;;;;5056284;28;20059;-79
2022/05/26 02:23:02;;;;;;;0.75;0.75;;;12.30;99.90;;;;;;5055911;28;20032;-80
2022/05/26 02:25:29;;;;;;;0.82;0.80;;;12.30;99.90;;;;;;5057029;28;20582;-80
2022/05/26 02:27:57;;;;;;;0.93;0.93;;;12.30;99.90;;;;;;5054045;28;20021;-80
2022/05/26 02:30:36;;;;;;;0.82;0.80;;;12.30;99.90;;;;;;5056793;28;20053;-80
2022/05/26 02:33:06;;;;;;;1.23;0.90;;;12.20;99.90;;;;;;5058398;28;20029;-80
2022/05/26 02:35:36;;;;;;;1.08;0.85;;;12.10;99.90;;;;;;5058260;28;20059;-80
2022/05/26 02:38:07;;;;;;;0.80;0.80;;;12.10;99.90;;;;;;5057875;28;20028;-79
2022/05/26 02:40:33;;;;;;;1.07;1.00;;;12.10;99.90;;;;;;5058497;28;20500;-80
2022/05/26 02:43:05;;;;;;;0.80;0.80;;;12.00;99.90;;;;;;5058884;28;20819;-81
2022/05/26 02:45:58;;;;;;;0.80;0.80;;;12.00;99.90;;;;;;5059980;28;20029;-80
2022/05/26 02:48:47;;;;;;;0.95;0.95;;;12.00;99.90;;;;;;5069266;28;20129;-80
2022/05/26 02:51:31;;;;;;;0.85;0.85;;;12.00;99.90;;;;;;5078287;28;20028;-80
2022/05/26 02:54:16;;;;;;;1.08;1.08;;;12.00;99.90;;;;;;5087349;28;20028;-79
2022/05/26 02:57:14;;;;;;;0.88;0.88;;;12.10;99.90;;;;;;5071447;28;20075;-79
2022/05/26 03:00:03;;;;;;;1.38;0.82;;;12.10;99.90;;;;;;5047774;28;20119;-80
2022/05/26 03:02:38;;;;;;;1.60;0.90;;;12.10;99.90;;;;;;5057585;28;20017;-80
2022/05/26 03:05:07;;;;;;;0.70;0.70;;;12.00;99.90;;;;;;5062051;28;20074;-79
2022/05/26 03:07:34;;;;;;;0.80;0.80;;;12.00;99.90;;;;;;5059228;28;20397;-80
2022/05/26 03:10:03;;;;;;;0.88;0.88;;;12.00;99.90;;;;;;5057784;28;20029;-80
2022/05/26 03:12:33;;;;;;;1.08;0.98;;;11.90;99.90;;;;;;5057603;28;20454;-80
2022/05/26 03:14:59;;;;;;;0.95;0.95;;;11.90;99.90;;;;;;5062777;28;20100;-80
2022/05/26 03:17:25;;;;;;;1.13;0.90;;;11.90;99.90;;;;;;5053313;28;20028;-79
2022/05/26 03:19:50;;;;;;;1.10;0.90;;;11.90;99.90;;;;;;5087846;28;20369;-79
2022/05/26 03:22:16;;;;;;;0.70;0.70;;;12.00;99.90;;;;;;5085756;28;20017;-79
2022/05/26 03:24:42;;;;;;;1.48;0.70;;;12.00;99.90;;;;;;5064538;28;20449;-79
2022/05/26 03:27:08;;;;;;;0.80;0.80;;;12.10;99.90;;;;;;5071292;28;20033;-79
2022/05/26 03:29:34;;;;;;;1.08;0.98;;;12.10;99.90;;;;;;5066905;28;20025;-80
2022/05/26 03:32:00;;;;;;;1.20;0.80;;;12.20;99.90;;;;;;5064977;28;20021;-79
2022/05/26 03:42:40;;;;;;;1.08;1.08;;;12.20;99.90;;;;;;5063128;28;20048;-80
2022/05/26 03:45:07;;;;;;;1.15;1.05;;;12.20;99.90;;;;;;5058235;28;20041;-79
2022/05/26 03:47:32;;;;;;;0.90;0.90;;;12.10;99.90;;;;;;5054160;28;20037;-80
2022/05/26 03:49:58;;;;;;;1.10;1.02;;;12.00;99.90;;;;;;5049557;28;20037;-78
2022/05/26 03:52:24;;;;;;;1.10;0.68;;;11.90;99.90;;;;;;5059241;28;20377;-84
2022/05/26 03:54:50;;;;;;;0.70;0.70;;;11.80;99.90;;;;;;5058618;28;20111;-82
2022/05/26 03:57:27;;;;;;;1.00;0.85;;;11.70;99.90;;;;;;5042232;28;20101;-83
2022/05/26 03:59:53;;;;;;;1.38;1.10;;;11.70;99.90;;;;;;5060765;28;20017;-80
2022/05/26 04:02:20;;;;;;;2.03;1.13;;;11.70;99.90;;;;;;5060052;28;20021;-81
2022/05/26 04:04:46;;;;;;;0.93;0.93;;;11.70;99.90;;;;;;5060547;28;20028;-82
2022/05/26 04:07:12;;;;;;;1.92;0.98;;;11.70;99.90;;;;;;5058792;28;20017;-82
2022/05/26 04:09:39;;;;;;;0.80;0.80;;;11.80;99.90;;;;;;5058474;28;20029;-82
2022/05/26 04:12:10;;;;;;;1.02;0.90;;;11.80;99.90;;;;;;5058962;28;20357;-81
2022/05/26 04:14:37;;;;;;;1.17;1.08;;;11.80;99.90;;;;;;5041291;28;20021;-82
2022/05/26 04:17:04;;;;;;;0.85;0.85;;;11.90;99.90;;;;;;5055846;28;20473;-83
2022/05/26 04:19:30;;;;;;;0.70;0.70;;;11.90;99.90;;;;;;5041731;28;20108;-82
2022/05/26 04:24:40;;;;;;;0.85;0.85;;;12.00;99.90;;;;;;5059594;28;20064;-82
2022/05/26 04:27:06;;;;;;;1.00;0.93;;;12.10;99.90;;;;;;5059443;28;20032;-79
2022/05/26 04:29:32;;;;;;;1.45;0.82;;;12.10;99.90;;;;;;5059677;28;20512;-80
2022/05/26 04:31:59;;;;;;;1.25;1.05;;;12.20;99.90;;;;;;5060819;28;20028;-81
2022/05/26 04:34:24;;;;;;;1.00;0.85;;;12.30;99.90;;;;;;5060304;28;20139;-80
2022/05/26 04:36:50;;;;;;;0.93;0.82;;;12.30;99.90;;;;;;5041108;28;20143;-82
2022/05/26 04:39:17;;;;;;;0.68;0.63;;;12.30;99.90;;;;;;5058884;28;20339;-80
2022/05/26 04:41:43;;;;;;;0.50;0.50;;;12.30;99.90;;;;;;5041179;28;20040;-81
2022/05/26 04:44:17;;;;;;;2.10;0.90;;;12.40;99.90;;;;;;5058629;28;20028;-82
2022/05/26 04:46:43;;;;;;;0.63;0.63;;;12.60;99.90;;;;;;5049052;28;20119;-83
2022/05/26 04:49:09;;;;;;;0.70;0.70;;;12.80;99.90;;;;;;5048343;28;20043;-80
2022/05/26 04:51:37;;;;;;;0.70;0.65;;;13.10;99.90;;;;;;5059119;28;20029;-82
2022/05/26 04:54:04;;;;;;;0.85;0.68;;;13.40;99.90;;;;;;5040237;28;20029;-82
2022/05/26 04:56:30;;;;;;;3.20;0.70;;;13.40;99.90;;;;;;5060065;28;20020;-83
2022/05/26 04:58:56;;;;;;;4.03;1.10;;;13.50;99.90;;;;;;5058449;28;20032;-83
2022/05/26 05:01:23;;;;;;;0.88;0.73;;;13.60;99.90;;;;;;5041681;28;20036;-81
2022/05/26 05:03:48;;;;;;;0.73;0.70;;;13.70;99.90;;;;;;5060105;28;20040;-80
2022/05/26 05:06:16;;;;;;;0.80;0.80;;;13.70;99.90;;;;;;5041208;28;20029;-83
2022/05/26 05:08:42;;;;;;;1.38;0.80;;;13.90;99.90;;;;;;5041532;28;20025;-82
2022/05/26 05:11:09;;;;;;;1.70;1.00;;;14.00;99.90;;;;;;5041779;28;20036;-82
2022/05/26 05:13:34;;;;;;;1.05;1.00;;;14.20;99.90;;;;;;5041529;28;20509;-82
2022/05/26 05:16:03;;;;;;;0.57;0.57;;;14.40;99.90;;;;;;5066968;28;20024;-82
2022/05/26 05:18:29;;;;;;;0.70;0.70;;;14.60;99.30;;;;;;5045330;28;20025;-82
2022/05/26 05:20:58;;;;;;;0.45;0.45;;;15.20;98.50;;;;;;5046732;28;20077;-81
2022/05/26 05:23:24;;;;;;;0.80;0.68;;;15.50;96.80;;;;;;5039796;28;20394;-82
2022/05/26 05:25:51;;;;;;;1.05;0.98;;;15.40;96.30;;;;;;5021319;28;20032;-81
2022/05/26 05:28:23;;;;;;;0.80;0.80;;;15.40;96.40;;;;;;5039267;28;20025;-81
2022/05/26 05:31:04;;;;;;;0.60;0.60;;;15.50;96.50;;;;;;5049354;28;20080;-82
2022/05/26 05:33:49;;;;;;;0.40;0.40;;;18.30;94.40;;;;;;5058863;28;20178;-83
2022/05/26 05:36:20;;;;;;;0.50;0.50;;;19.00;87.80;;;;;;5042790;28;20063;-82
2022/05/26 05:38:47;;;;;;;0.50;0.50;;;18.40;86.00;;;;;;5043392;28;20021;-82
2022/05/26 05:41:13;;;;;;;0.60;0.60;;;17.80;87.60;;;;;;5041042;28;20075;-82
2022/05/26 05:43:40;;;;;;;0.52;0.52;;;17.20;90.00;;;;;;5059548;28;20028;-82
2022/05/26 05:46:06;;;;;;;0.43;0.43;;;16.70;90.90;;;;;;5065765;28;20033;-81
2022/05/26 05:48:32;;;;;;;0.68;0.57;;;16.40;91.90;;;;;;5053002;28;20032;-82
2022/05/26 05:50:58;;;;;;;0.73;0.50;;;16.40;92.30;;;;;;5077256;28;20063;-83
2022/05/26 05:53:26;;;;;;;0.47;0.47;;;16.40;92.40;;;;;;5059889;28;20028;-82
2022/05/26 05:55:52;;;;;;;0.32;0.32;;;16.50;92.40;;;;;;5041258;28;20129;-82
2022/05/26 05:58:17;;;;;;;0.68;0.60;;;16.60;92.10;;;;;;5058782;28;20079;-83
2022/05/26 06:00:43;;;;;;;0.60;0.60;;;16.80;91.70;;;;;;5059550;28;20028;-83
2022/05/26 06:03:09;;;;;;;0.55;0.55;;;17.00;91.40;;;;;;5062919;28;20028;-83
2022/05/26 06:05:36;;;;;;;0.43;0.43;;;17.10;91.10;;;;;;5053141;28;20059;-82
2022/05/26 06:08:01;;;;;;;0.70;0.70;;;17.40;90.70;;;;;;5074948;28;20039;-82
2022/05/26 06:10:30;;;;;;;0.73;0.73;;;17.90;90.00;;;;;;5074520;28;20132;-83
2022/05/26 06:12:59;;;;;;;3.03;0.77;;;18.30;87.60;;;;;;5073132;28;20040;-82
2022/05/26 06:15:27;;;;;;;0.80;0.80;;;18.40;84.50;;;;;;5060338;28;20005;-82
2022/05/26 06:17:57;;;;;;;0.82;0.75;;;18.30;82.20;;;;;;5083822;28;20097;-82
2022/05/26 06:20:22;;;;;;;0.95;0.80;;;18.10;83.10;;;;;;5068750;28;20023;-82
2022/05/26 06:22:49;;;;;;;1.52;0.60;;;18.00;83.60;;;;;;5057330;28;20069;-83
2022/05/26 06:25:16;;;;;;;2.00;0.90;;;17.90;84.00;;;;;;5049628;28;20036;-82
2022/05/26 06:30:30;;;;;;;0.82;0.82;;;17.70;84.00;;;;;;5064361;28;20059;-82
2022/05/26 06:38:35;;;;;;;;;;;17.60;83.90;;;;;;5061928;28;20107;-82
2022/05/26 06:42:05;;;;;;;0.47;0.47;;;17.80;82.90;;;;;;5061272;28;20357;-82
2022/05/26 06:43:48;;;;;;;1.15;0.60;;;18.00;82.10;;;;;;5059889;28;20033;-81
2022/05/26 06:46:14;;;;;;;0.93;0.68;;;18.50;81.00;;;;;;5067736;28;20021;-81
2022/05/26 06:48:41;;;;;;;2.47;0.98;;;19.20;78.60;;;;;;5053292;28;20032;-81
2022/05/26 06:51:07;;;;;;;1.20;0.88;;;19.60;75.30;;;;;;5061357;28;20587;-82
2022/05/26 06:53:33;;;;;;;0.90;0.90;;;20.00;73.40;;;;;;5069502;28;20070;-82
2022/05/26 06:55:59;;;;;;;2.13;1.42;;;20.70;72.20;;;;;;5061982;28;20114;-82
2022/05/26 06:58:26;;;;;;;2.22;0.90;;;22.10;68.30;;;;;;5070392;28;20029;-82
2022/05/26 07:00:53;;;;;;;1.08;0.68;;;23.20;62.80;;;;;;5070489;28;20021;-83
2022/05/26 07:03:18;;;;;;;1.10;0.80;;;25.00;57.30;;;;;;5063250;28;20036;-83
2022/05/26 07:05:44;;;;;;;1.75;0.90;;;26.50;54.00;;;;;;5054394;28;20021;-83
2022/05/26 07:08:10;;;;;;;2.05;0.60;;;27.00;50.10;;;;;;5056787;28;20020;-83
2022/05/26 07:10:37;;;;;;;1.38;0.77;;;26.30;50.40;;;;;;5053444;28;20064;-83
2022/05/26 07:13:03;;;;;;;1.05;0.85;;;24.40;52.40;;;;;;5071282;28;20025;-82
2022/05/26 07:15:29;;;;;;;2.47;0.88;;;22.20;56.30;;;;;;5056785;28;20028;-83
2022/05/26 07:17:55;;;;;;;1.08;1.00;;;20.70;60.60;;;;;;5085999;28;20044;-83
2022/05/26 07:20:21;;;;;;;0.60;0.60;;;19.60;64.10;;;;;;5090996;28;20059;-80
2022/05/26 07:22:46;;;;;;;1.77;0.90;;;18.90;67.30;;;;;;5073166;28;20079;-83
2022/05/26 07:25:12;;;;;;;2.42;1.10;;;18.40;69.50;;;;;;5073319;28;20052;-80
2022/05/26 07:27:38;;;;;;;0.82;0.70;;;18.20;70.80;;;;;;5069428;28;20075;-82
2022/05/26 07:30:06;;;;;;;2.38;0.80;;;18.00;71.40;;;;;;5058687;28;20021;-82
2022/05/26 07:32:32;;;;;;;1.15;0.63;;;18.00;72.20;;;;;;5042599;28;20029;-82
2022/05/26 07:34:57;;;;;;;1.35;0.65;;;17.90;73.30;;;;;;5061630;28;20025;-82
2022/05/26 07:42:55;;;;;;;0.50;0.50;;;17.80;72.20;;;;;;5060923;28;20036;-83
2022/05/26 07:45:21;;;;;;;1.77;1.20;;;17.80;72.10;;;;;;5061494;28;20025;-81
2022/05/26 07:47:47;;;;;;;1.48;1.10;;;17.90;69.20;;;;;;5066646;28;20059;-82
2022/05/26 07:50:19;;;;;;;0.93;0.70;;;18.00;69.20;;;;;;5041118;28;20025;-83
2022/05/26 07:52:49;;;;;;;;;;;18.00;69.50;;;;;;5060067;28;20033;-83
2022/05/26 07:55:19;;;;;;;2.30;0.95;;;18.00;69.70;;;;;;5044732;28;19962;-84
2022/05/26 07:57:45;;;;;;;2.13;0.93;;;18.00;69.40;;;;;;5068274;28;20040;-84
2022/05/26 08:00:11;;;;;;;2.92;1.05;;;18.00;69.20;;;;;;5069678;28;20041;-84
2022/05/26 08:02:39;;;;;;;2.58;0.90;;;18.10;68.80;;;;;;5048901;28;20021;-85
2022/05/26 08:05:06;;;;;;;2.28;0.90;;;18.10;68.50;;;;;;5062122;28;20029;-83
2022/05/26 08:07:35;;;;;;;3.92;1.27;;;18.10;69.10;;;;;;5060930;28;20032;-83
2022/05/26 08:10:01;;;;;;;3.85;1.20;;;18.30;68.10;;;;;;5040993;28;20062;-83
2022/05/26 08:12:27;;;;;;;3.80;1.17;;;18.30;66.90;;;;;;5058408;28;20024;-84
2022/05/26 08:14:53;;;;;;;2.60;1.45;;;18.40;65.90;;;;;;5059604;28;20021;-83
2022/05/26 08:17:20;;;;;;;5.13;1.52;;;18.50;65.80;;;;;;5064694;28;20021;-81
2022/05/26 08:19:49;;;;;;;1.23;0.80;;;18.50;66.00;;;;;;5064528;28;20013;-84
2022/05/26 08:22:17;;;;;;;1.42;0.80;;;18.70;66.20;;;;;;5063788;28;20021;-85
2022/05/26 08:24:48;;;;;;;2.35;0.90;;;18.80;66.00;;;;;;5046174;28;20025;-83
2022/05/26 08:27:14;;;;;;;1.53;0.70;;;19.00;65.30;;;;;;5064846;28;20027;-84
2022/05/26 08:29:41;;;;;;;2.70;0.60;;;19.20;65.50;;;;;;5045603;28;20088;-82
2022/05/26 08:32:07;;;;;;;1.02;0.52;;;19.40;65.30;;;;;;5064417;28;20027;-82
2022/05/26 08:34:33;;;;;;;2.50;1.05;;;19.60;64.60;;;;;;5063812;28;20064;-84
2022/05/26 08:36:59;;;;;;;1.60;1.40;;;19.90;63.30;;;;;;5046049;28;20024;-83
2022/05/26 08:39:24;;;;;;;1.00;0.95;;;20.10;63.00;;;;;;5063700;28;20025;-83
2022/05/26 08:41:52;;;;;;;1.27;0.77;;;20.30;62.90;;;;;;5064507;28;20017;-83
2022/05/26 08:44:27;;;;;;;1.08;0.60;;;20.60;61.40;;;;;;5063940;28;20079;-86
2022/05/26 08:47:01;;;;;;;1.20;0.60;;;20.70;59.40;;;;;;5063251;28;20048;-83
2022/05/26 08:49:47;;;;;;;0.85;0.65;;;20.70;59.60;;;;;;5063310;28;20068;-85
2022/05/26 08:52:14;;;;;;;1.23;0.60;;;20.40;58.90;;;;;;5062069;28;20021;-81
2022/05/26 08:54:40;;;;;;;1.17;0.50;;;20.20;60.00;;;;;;5061741;28;20519;-82
2022/05/26 08:57:15;;;;;;;1.67;0.75;;;20.30;59.80;;;;;;5060965;28;20076;-84
2022/05/26 08:59:46;;;;;;;2.05;0.80;;;20.30;59.50;;;;;;5061174;28;20021;-83
2022/05/26 09:02:36;;;;;;;1.02;0.70;;;20.10;60.50;;;;;;5061080;28;20029;-82
2022/05/26 09:05:14;;;;;;;1.42;0.80;;;20.10;61.30;;;;;;5033285;28;20041;-81
2022/05/26 09:13:30;;;;;;;2.08;0.93;;;20.80;59.00;;;;;;5061462;28;20095;-84
2022/05/26 09:15:59;;;;;;;1.65;0.80;;;21.10;57.50;;;;;;5042429;28;20029;-82
2022/05/26 09:18:25;;;;;;;1.52;0.70;;;21.20;56.60;;;;;;5059830;28;20032;-83
2022/05/26 09:20:52;;;;;;;0.80;0.50;;;21.00;57.00;;;;;;5059761;28;20093;-82
2022/05/26 09:23:22;;;;;;;0.80;0.60;;;20.80;57.20;;;;;;5026199;28;20029;-81
2022/05/26 09:26:05;;;;;;;1.55;0.70;;;20.70;58.00;;;;;;5043132;28;20025;-82
2022/05/26 09:28:32;;;;;;;0.77;0.77;;;20.80;57.70;;;;;;5062419;28;20071;-82
2022/05/26 09:31:36;;;;;;;1.92;0.60;;;21.20;56.70;;;;;;5062151;28;20021;-83
2022/05/26 09:34:14;;;;;;;2.35;0.90;;;21.50;55.40;;;;;;5060625;28;20099;-84
2022/05/26 09:36:46;;;;;;;1.95;0.95;;;21.50;55.60;;;;;;5061167;28;20017;-82
2022/05/26 09:39:13;;;;;;;2.60;0.82;;;21.70;56.10;;;;;;5061254;28;20025;-83
2022/05/26 09:41:44;;;;;;;1.83;0.50;;;22.20;53.90;;;;;;5064068;28;20033;-83
2022/05/26 09:44:42;;;;;;;4.18;0.70;;;22.40;53.80;;;;;;5044901;28;20047;-83
2022/05/26 09:47:29;;;;;;;0.98;0.40;;;22.50;52.90;;;;;;5047481;28;20037;-86
2022/05/26 09:49:58;;;;;;;2.67;0.60;;;22.30;52.40;;;;;;5063664;28;20033;-83
2022/05/26 09:52:28;;;;;;;1.75;0.70;;;22.20;52.60;;;;;;5069374;28;20032;-85
2022/05/26 09:55:40;;;;;;;1.63;0.68;;;22.10;52.60;;;;;;5061732;28;20040;-82
2022/05/26 09:58:11;;;;;;;1.63;0.70;;;22.20;53.40;;;;;;5037929;28;20060;-84
2022/05/26 10:00:44;;;;;;;;;;;22.60;52.60;;;;;;5062141;28;20044;-83
2022/05/26 10:03:31;;;;;;;2.40;0.90;;;22.80;52.70;;;;;;5060408;28;19916;-82
2022/05/26 10:06:15;;;;;;;3.22;0.73;;;22.90;51.40;;;;;;5060241;28;20089;-82
2022/05/26 10:09:00;;;;;;;2.08;0.68;;;22.60;51.60;;;;;;5059980;28;20020;-83
2022/05/26 10:11:44;;;;;;;0.68;0.55;;;22.60;52.10;;;;;;5042929;28;20028;-82
2022/05/26 10:14:16;;;;;;;1.83;0.70;;;22.70;52.30;;;;;;5042628;28;20107;-83
2022/05/26 10:17:05;;;;;;;6.53;0.93;;;22.80;52.00;;;;;;5051727;28;20020;-83
2022/05/26 10:19:55;;;;;;;0.77;0.50;;;22.90;51.30;;;;;;5063332;28;20025;-82
2022/05/26 10:22:44;;;;;;;0.63;0.63;;;23.40;51.40;;;;;;5062541;28;20045;-82
2022/05/26 10:25:59;;;;;;;0.60;0.40;;;23.70;50.00;;;;;;5079956;28;20021;-82
2022/05/26 10:28:33;;;;;;;0.63;0.47;;;23.50;50.50;;;;;;4993350;28;20031;-83
2022/05/26 10:31:02;;;;;;;2.50;0.85;;;23.20;50.90;;;;;;4962166;28;20455;-82
2022/05/26 10:33:46;;;;;;;2.90;1.02;;;23.00;51.00;;;;;;5035382;28;20036;-83
2022/05/26 10:36:47;;;;;;;1.45;0.50;;;22.90;51.90;;;;;;5073238;28;20029;-84
2022/05/26 10:39:34;;;;;;;3.28;0.52;;;22.80;51.30;;;;;;5062122;28;20029;-83
2022/05/26 10:42:10;;;;;;;3.22;1.08;;;22.30;51.70;;;;;;5067545;28;20032;-84
2022/05/26 10:44:40;;;;;;;0.93;0.60;;;21.80;52.10;;;;;;5056400;28;20017;-86
2022/05/26 10:47:21;;;;;;;2.58;0.65;;;21.40;53.30;;;;;;5072590;28;20040;-84
2022/05/26 10:50:28;;;;;;;1.40;0.65;;;21.60;53.70;;;;;;5084122;28;20029;-85
2022/05/26 10:53:07;;;;;;;2.65;1.33;;;22.20;53.00;;;;;;5004818;28;20030;-83
2022/05/26 10:55:41;;;;;;;1.58;0.68;;;22.50;51.60;;;;;;5005120;28;20034;-82
2022/05/26 10:58:34;;;;;;;1.88;0.60;;;22.80;51.30;;;;;;5055192;28;20063;-84
2022/05/26 11:01:06;;;;;;;2.53;0.40;;;23.10;50.70;;;;;;5059718;28;20056;-83
2022/05/26 11:03:40;;;;;;;0.68;0.47;;;23.30;50.50;;;;;;5071397;28;20170;-83
2022/05/26 11:06:12;;;;;;;0.88;0.60;;;23.50;49.80;;;;;;5048859;28;20035;-84
2022/05/26 11:08:48;;;;;;;2.92;1.20;;;23.70;49.80;;;;;;5065592;28;20036;-84
2022/05/26 11:11:40;;;;;;;0.95;0.52;;;23.60;50.30;;;;;;5063939;28;20026;-82
2022/05/26 11:17:38;;;;;;;3.83;0.90;;;23.70;49.30;;;;;;5077917;28;20043;-83
2022/05/26 11:20:37;;;;;;;4.20;0.95;;;24.10;48.40;;;;;;5031825;28;20028;-84
2022/05/26 11:23:03;;;;;;;1.02;0.65;;;24.30;49.00;;;;;;5046608;28;20044;-83
2022/05/26 11:25:52;;;;;;;3.65;0.60;;;24.20;48.30;;;;;;5064539;28;20025;-84
2022/05/26 11:28:48;;;;;;;1.40;0.82;;;23.90;48.40;;;;;;5064080;28;20484;-83
2022/05/26 11:37:29;;;;;;;3.00;0.57;;;24.70;47.00;;;;;;4980978;28;20082;-85
2022/05/26 11:40:00;;;;;;;0.80;0.60;;;25.10;46.50;;;;;;5039153;28;20092;-84
2022/05/26 11:42:38;;;;;;;2.35;0.80;;;25.20;46.30;;;;;;5059234;28;20571;-83
2022/05/26 11:45:21;;;;;;;1.10;0.47;;;25.10;45.80;;;;;;5041656;28;20024;-83
2022/05/26 11:47:49;;;;;;;1.90;1.25;;;24.80;46.40;;;;;;5061110;28;20027;-83
2022/05/26 11:50:30;;;;;;;4.53;0.85;;;24.30;47.00;;;;;;5049598;28;20063;-82
2022/05/26 11:52:55;;;;;;;2.55;0.80;;;24.00;48.10;;;;;;5048533;28;20037;-82
2022/05/26 11:55:45;;;;;;;1.40;0.70;;;24.20;48.00;;;;;;5061082;28;20047;-82
2022/05/26 11:58:27;;;;;;;0.35;0.35;;;23.90;48.60;;;;;;5060479;28;20023;-82
2022/05/26 12:01:33;;;;;;;1.25;0.60;;;23.80;49.90;;;;;;5042254;28;20096;-81
2022/05/26 12:04:04;;;;;;;1.75;0.40;;;24.20;47.80;;;;;;5043459;28;20025;-81
2022/05/26 12:06:38;;;;;;;0.85;0.60;;;24.80;46.60;;;;;;5062806;28;20412;-81
2022/05/26 12:09:05;;;;;;;0.82;0.50;;;25.10;46.10;;;;;;5042711;28;20156;-81
2022/05/26 12:12:03;;;;;;;2.08;0.70;;;25.50;45.60;;;;;;5061533;28;20036;-81
2022/05/26 12:14:47;;;;;;;1.23;0.50;;;25.70;44.90;;;;;;5024039;28;20029;-82
2022/05/26 12:17:33;;;;;;;0.65;0.40;;;25.30;45.80;;;;;;5047630;28;20021;-82
2022/05/26 12:20:11;;;;;;;2.28;1.50;;;25.20;46.60;;;;;;5046974;28;20025;-79
2022/05/26 12:23:03;;;;;;;0.95;0.40;;;25.30;46.00;;;;;;5038382;28;20067;-79
2022/05/26 12:25:42;;;;;;;3.22;0.40;;;25.40;45.40;;;;;;5046153;28;20186;-80
2022/05/26 12:28:10;;;;;;;2.53;0.50;;;25.40;44.40;;;;;;5041195;28;20112;-79
2022/05/26 12:30:45;;;;;;;2.67;0.68;;;25.20;44.60;;;;;;5041172;28;20021;-81
2022/05/26 12:33:17;;;;;;;0.52;0.40;;;25.00;45.40;;;;;;5058097;28;20093;-79
2022/05/26 12:36:10;;;;;;;0.75;0.70;;;24.80;45.00;;;;;;5039970;28;20359;-81
2022/05/26 12:38:51;;;;;;;2.20;0.70;;;24.70;45.30;;;;;;5057941;28;20017;-82
2022/05/26 12:41:43;;;;;;;1.50;0.70;;;25.00;44.50;;;;;;5039679;28;20644;-82
2022/05/26 12:44:26;;;;;;;0.50;0.50;;;25.70;43.20;;;;;;5057504;28;20033;-80
2022/05/26 12:47:10;;;;;;;2.50;0.52;;;26.30;42.00;;;;;;5066192;28;20474;-80
2022/05/26 12:49:53;;;;;;;1.13;0.47;;;26.50;41.90;;;;;;5057594;28;20437;-80
2022/05/26 12:52:31;;;;;;;0.95;0.60;;;26.00;42.90;;;;;;5078225;28;20078;-80
2022/05/26 12:55:24;;;;;;;2.78;0.40;;;25.30;44.10;;;;;;5057381;28;20146;-80
2022/05/26 12:58:09;;;;;;;0.73;0.50;;;25.30;45.40;;;;;;5040204;28;20371;-80
2022/05/26 13:00:42;;;;;;;2.80;2.22;;;25.40;45.30;;;;;;5039713;28;20021;-82
2022/05/26 13:03:20;;;;;;;2.92;0.80;;;25.30;44.70;;;;;;5057777;28;20118;-81
2022/05/26 13:06:07;;;;;;;2.95;0.50;;;25.10;45.00;;;;;;5039990;28;20037;-82
2022/05/26 13:09:07;;;;;;;2.00;0.60;;;25.30;45.40;;;;;;5056842;28;20025;-79
2022/05/26 13:11:45;;;;;;;0.90;0.80;;;25.30;44.90;;;;;;5053145;28;20455;-80
2022/05/26 13:14:42;;;;;;;2.55;0.90;;;24.90;45.30;;;;;;5054434;28;20021;-80
2022/05/26 13:17:13;;;;;;;2.88;1.60;;;24.90;46.30;;;;;;5015929;28;20116;-81
2022/05/26 13:19:44;;;;;;;1.37;0.70;;;24.60;45.90;;;;;;5077505;28;20013;-80
2022/05/26 13:22:14;;;;;;;1.08;0.60;;;24.40;47.00;;;;;;5082230;28;20020;-79
2022/05/26 13:24:50;;;;;;;1.33;0.52;;;24.30;47.20;;;;;;5080121;28;20033;-80
2022/05/26 13:27:16;;;;;;;0.80;0.70;;;24.00;47.60;;;;;;5053011;28;20052;-79
2022/05/26 13:29:46;;;;;;;1.55;0.60;;;23.90;48.60;;;;;;5066675;28;20032;-80
2022/05/26 13:34:59;;;;;;;2.95;0.68;;;23.60;50.80;;;;;;5061087;28;20039;-80
2022/05/26 13:37:30;;;;;;;2.10;0.40;;;23.90;51.00;;;;;;5059281;28;20025;-81
2022/05/26 13:40:17;;;;;;;1.95;0.65;;;24.40;53.90;;;;;;5057634;28;20040;-83
2022/05/26 13:42:53;;;;;;;1.27;0.70;;;24.80;46.60;;;;;;5056865;28;20035;-82
2022/05/26 13:45:34;;;;;;;3.95;1.20;;;24.80;47.20;;;;;;5057698;28;20044;-82
2022/05/26 13:48:30;;;;;;;0.80;0.53;;;24.50;47.30;;;;;;5070734;28;20021;-82
2022/05/26 13:51:03;;;;;;;2.50;0.70;;;24.30;47.90;;;;;;5058037;28;20029;-82
2022/05/26 13:53:29;;;;;;;2.47;0.70;;;24.50;48.80;;;;;;5056378;28;20051;-82
2022/05/26 13:55:57;;;;;;;1.58;0.60;;;24.50;49.10;;;;;;5039044;28;20021;-82
2022/05/26 13:58:24;;;;;;;0.82;0.57;;;24.60;50.20;;;;;;5039322;28;20021;-82
2022/05/26 14:01:03;;;;;;;2.83;0.65;;;24.70;51.20;;;;;;5039207;28;20021;-80
2022/05/26 14:03:32;;;;;;;0.82;0.70;;;24.80;47.60;;;;;;5057655;28;20040;-82
2022/05/26 14:06:06;;;;;;;1.88;0.73;;;24.60;46.70;;;;;;5058119;28;20064;-80